Time;durP1;ratioP1;P1;durP2;ratioP2;P2;SDS_P1;SDS_P2;PMS_P1;PMS_P2;Temp;Humidity;BMP_temperature;BMP_pressure;BME280_temperature;BME280_humidity;BME280_pressure;Samples;Min_cycle;Max_cycle;Signal;HPM_P1;HPM_P2
2023/06/29 00:01:51;;;;;;;11.47;7.40;;;19.10;66.80;;;;;;5094199;28;20458;-68
2023/06/29 00:04:21;;;;;;;14.30;8.57;;;19.10;67.80;;;;;;5094439;28;20480;-69
2023/06/29 00:06:49;;;;;;;13.20;8.33;;;19.10;69.20;;;;;;5094304;28;20961;-68
2023/06/29 00:09:16;;;;;;;12.00;9.07;;;19.00;69.20;;;;;;5093784;28;20450;-68
2023/06/29 00:11:45;;;;;;;14.53;9.43;;;19.00;69.20;;;;;;5094375;28;20452;-69
2023/06/29 00:14:11;;;;;;;14.37;9.67;;;19.00;69.20;;;;;;5092992;28;20544;-68
2023/06/29 00:16:38;;;;;;;11.23;8.17;;;18.90;69.10;;;;;;5094503;28;20452;-69
2023/06/29 00:19:07;;;;;;;17.57;8.40;;;18.80;69.00;;;;;;5094483;28;20767;-68
2023/06/29 00:21:34;;;;;;;19.27;9.70;;;18.80;69.00;;;;;;5094100;28;20450;-68
2023/06/29 00:24:02;;;;;;;13.87;8.97;;;18.70;68.90;;;;;;5093181;28;20450;-69
2023/06/29 00:26:30;;;;;;;18.60;10.70;;;18.70;68.90;;;;;;5093227;28;20446;-68
2023/06/29 00:28:58;;;;;;;16.20;10.37;;;18.70;69.60;;;;;;5093727;28;20537;-68
2023/06/29 00:31:26;;;;;;;17.60;13.07;;;18.70;71.00;;;;;;5094127;28;20949;-68
2023/06/29 00:33:53;;;;;;;20.60;18.87;;;18.70;73.00;;;;;;5094132;28;20450;-68
2023/06/29 00:36:19;;;;;;;25.83;23.57;;;18.70;74.50;;;;;;5092961;28;20469;-68
2023/06/29 00:38:46;;;;;;;42.23;39.23;;;18.50;75.10;;;;;;5093959;28;20549;-68
2023/06/29 00:41:13;;;;;;;19.30;17.33;;;18.60;76.90;;;;;;5092436;28;20446;-68
2023/06/29 00:43:42;;;;;;;13.73;12.40;;;18.60;74.20;;;;;;5093343;28;20524;-68
2023/06/29 00:46:11;;;;;;;11.97;10.70;;;18.60;73.70;;;;;;5093780;28;20450;-68
2023/06/29 00:48:38;;;;;;;16.40;11.50;;;18.50;73.20;;;;;;5093300;28;20811;-68
2023/06/29 00:51:06;;;;;;;16.17;11.57;;;18.50;73.10;;;;;;5094008;28;20450;-68
2023/06/29 00:53:33;;;;;;;13.63;10.23;;;18.50;71.70;;;;;;5093064;28;20446;-68
2023/06/29 00:56:02;;;;;;;13.77;9.70;;;18.50;70.70;;;;;;5092340;28;20477;-68
2023/06/29 00:58:30;;;;;;;16.63;12.50;;;18.60;71.20;;;;;;5093157;28;20461;-68
2023/06/29 01:00:58;;;;;;;13.43;12.03;;;18.50;74.10;;;;;;5092764;28;20534;-68
2023/06/29 01:03:27;;;;;;;16.93;15.13;;;18.50;72.80;;;;;;5092879;28;20455;-68
2023/06/29 01:06:01;;;;;;;31.27;29.27;;;18.50;73.50;;;;;;5092835;28;20452;-68
2023/06/29 01:08:34;;;;;;;40.83;38.03;;;18.50;76.80;;;;;;5093125;28;20450;-68
2023/06/29 01:11:03;;;;;;;36.90;34.50;;;18.50;76.80;;;;;;5092671;28;20454;-68
2023/06/29 01:13:32;;;;;;;47.23;44.53;;;18.50;76.80;;;;;;5092814;28;20507;-68
2023/06/29 01:15:59;;;;;;;52.53;49.73;;;18.50;78.30;;;;;;5077643;28;20474;-68
2023/06/29 01:18:30;;;;;;;68.23;64.60;;;18.40;78.90;;;;;;5091823;28;20472;-68
2023/06/29 01:20:57;;;;;;;56.97;54.07;;;18.40;80.10;;;;;;5092642;28;20454;-68
2023/06/29 01:23:26;;;;;;;37.67;35.23;;;18.40;80.00;;;;;;5092929;28;20442;-68
2023/06/29 01:25:55;;;;;;;27.17;25.10;;;18.30;76.60;;;;;;5092602;28;20442;-68
2023/06/29 01:28:22;;;;;;;17.13;15.83;;;18.30;76.60;;;;;;5093062;28;20449;-68
2023/06/29 01:30:49;;;;;;;18.00;15.53;;;18.20;75.90;;;;;;5092358;28;20963;-68
2023/06/29 01:33:18;;;;;;;25.07;22.80;;;18.20;76.30;;;;;;5092543;28;20446;-68
2023/06/29 01:35:46;;;;;;;25.27;23.47;;;18.20;76.50;;;;;;5091640;28;20493;-68
2023/06/29 01:38:16;;;;;;;37.30;35.23;;;18.20;76.50;;;;;;5093056;28;20453;-68
2023/06/29 01:40:47;;;;;;;37.90;35.30;;;18.20;78.80;;;;;;5092473;28;20449;-68
2023/06/29 01:43:16;;;;;;;44.87;42.40;;;18.20;78.30;;;;;;5092620;28;20453;-68
2023/06/29 01:45:45;;;;;;;55.20;52.27;;;18.20;77.80;;;;;;5092232;28;20442;-68
2023/06/29 01:48:13;;;;;;;57.70;54.90;;;18.20;79.60;;;;;;5090526;28;20446;-68
2023/06/29 01:50:40;;;;;;;60.60;57.40;;;18.20;80.10;;;;;;5092618;28;20454;-68
2023/06/29 01:53:07;;;;;;;60.90;57.60;;;18.20;80.80;;;;;;5092541;28;20446;-68
2023/06/29 01:55:34;;;;;;;55.00;52.00;;;18.10;79.40;;;;;;5091105;28;20977;-68
2023/06/29 01:58:00;;;;;;;76.57;73.07;;;18.10;79.80;;;;;;5091875;28;20959;-68
2023/06/29 02:00:29;;;;;;;65.97;62.53;;;18.10;81.40;;;;;;5092142;28;20449;-68
2023/06/29 02:02:56;;;;;;;54.27;51.57;;;18.10;80.50;;;;;;5092171;28;20516;-68
2023/06/29 02:05:22;;;;;;;42.13;39.60;;;18.10;80.10;;;;;;5092197;28;20793;-68
2023/06/29 02:07:49;;;;;;;43.77;41.17;;;18.10;79.30;;;;;;5092223;28;20446;-68
2023/06/29 02:10:16;;;;;;;32.47;30.33;;;18.00;79.30;;;;;;5092039;28;20481;-68
2023/06/29 02:12:43;;;;;;;28.13;26.33;;;18.10;77.80;;;;;;5092084;28;20469;-68
2023/06/29 02:15:11;;;;;;;38.50;36.27;;;18.10;77.70;;;;;;5090901;28;20875;-68
2023/06/29 02:17:39;;;;;;;41.33;39.03;;;18.00;78.80;;;;;;5091038;28;20450;-68
2023/06/29 02:20:09;;;;;;;47.47;45.07;;;18.00;79.30;;;;;;5091612;28;20453;-68
2023/06/29 02:22:36;;;;;;;52.90;49.90;;;18.00;80.00;;;;;;5091507;28;20458;-68
2023/06/29 02:25:03;;;;;;;62.07;58.77;;;17.90;80.40;;;;;;5091645;28;20955;-68
2023/06/29 02:27:29;;;;;;;67.73;64.40;;;17.90;81.00;;;;;;5091638;28;20450;-68
2023/06/29 02:29:56;;;;;;;59.57;56.77;;;17.90;81.70;;;;;;5091255;28;20450;-68
2023/06/29 02:32:23;;;;;;;60.70;57.93;;;17.80;81.30;;;;;;5092074;28;20827;-68
2023/06/29 02:34:51;;;;;;;57.50;54.50;;;17.90;80.90;;;;;;5091331;28;20454;-68
2023/06/29 02:37:18;;;;;;;64.43;61.23;;;17.90;80.60;;;;;;5092092;28;20810;-68
2023/06/29 02:39:45;;;;;;;125.13;120.40;;;17.90;81.20;;;;;;5091787;28;20536;-68
2023/06/29 02:42:11;;;;;;;151.87;146.00;;;18.00;84.30;;;;;;5091779;28;20450;-68
2023/06/29 02:44:38;;;;;;;153.50;147.20;;;18.00;84.30;;;;;;5091741;28;20453;-68
2023/06/29 02:47:06;;;;;;;166.30;158.93;;;17.90;85.00;;;;;;5091241;28;20840;-68
2023/06/29 02:49:33;;;;;;;146.63;140.53;;;18.00;86.40;;;;;;5091383;28;20445;-68
2023/06/29 02:52:01;;;;;;;133.93;128.63;;;17.90;84.50;;;;;;5091867;28;20474;-68
2023/06/29 02:54:27;;;;;;;132.00;126.47;;;17.90;84.20;;;;;;5090859;28;20472;-68
2023/06/29 02:56:54;;;;;;;158.53;152.23;;;17.90;84.20;;;;;;5090859;28;20476;-68
2023/06/29 02:59:22;;;;;;;160.27;154.23;;;17.90;85.30;;;;;;5091204;28;20941;-68
2023/06/29 03:01:49;;;;;;;139.37;133.83;;;17.90;86.00;;;;;;5091598;28;20442;-68
2023/06/29 03:04:16;;;;;;;134.90;129.63;;;17.80;85.30;;;;;;5091239;28;20883;-68
2023/06/29 03:06:42;;;;;;;151.83;145.77;;;17.80;85.60;;;;;;5094339;28;20445;-68
2023/06/29 03:09:11;;;;;;;139.67;134.07;;;17.80;87.40;;;;;;5095614;28;20872;-68
2023/06/29 03:11:37;;;;;;;125.47;120.03;;;17.80;86.10;;;;;;5095529;28;20449;-68
2023/06/29 03:14:04;;;;;;;146.37;139.67;;;17.80;84.80;;;;;;5095127;28;20446;-68
2023/06/29 03:16:31;;;;;;;152.63;146.80;;;17.80;86.20;;;;;;5094618;28;21059;-68
2023/06/29 03:18:58;;;;;;;145.57;139.60;;;17.80;86.70;;;;;;5094434;28;20454;-68
2023/06/29 03:21:25;;;;;;;147.80;141.70;;;17.80;85.40;;;;;;5095456;28;20968;-68
2023/06/29 03:23:51;;;;;;;132.17;127.07;;;17.70;86.10;;;;;;5095089;28;20544;-70
2023/06/29 03:26:20;;;;;;;119.20;114.40;;;17.80;85.40;;;;;;5092643;28;20861;-70
2023/06/29 03:28:46;;;;;;;121.30;116.60;;;17.80;85.50;;;;;;5095493;28;20476;-70
2023/06/29 03:31:13;;;;;;;130.83;125.23;;;17.80;85.20;;;;;;5094676;28;20446;-70
2023/06/29 03:33:40;;;;;;;108.87;104.13;;;17.80;85.90;;;;;;5094990;28;20488;-70
2023/06/29 03:36:11;;;;;;;131.63;126.43;;;17.80;84.10;;;;;;5092221;28;20559;-70
2023/06/29 03:38:37;;;;;;;136.43;131.23;;;17.90;85.60;;;;;;5090655;28;20441;-70
2023/06/29 03:41:04;;;;;;;122.83;117.43;;;17.90;85.80;;;;;;5094964;28;20445;-68
2023/06/29 03:43:32;;;;;;;125.50;120.00;;;17.90;85.60;;;;;;5094744;28;20525;-69
2023/06/29 03:45:59;;;;;;;123.93;118.60;;;17.90;85.00;;;;;;5093112;28;20438;-69
2023/06/29 03:48:27;;;;;;;117.47;112.57;;;17.90;84.90;;;;;;5094986;28;20449;-70
2023/06/29 03:50:54;;;;;;;111.67;107.17;;;17.90;84.90;;;;;;5094214;28;20945;-70
2023/06/29 03:53:21;;;;;;;122.30;117.57;;;18.00;84.70;;;;;;5091532;28;20867;-70
2023/06/29 03:55:48;;;;;;;146.57;140.37;;;18.00;85.10;;;;;;5085420;28;20467;-70
2023/06/29 03:58:15;;;;;;;153.57;147.70;;;18.00;86.40;;;;;;5074733;28;20454;-70
2023/06/29 04:00:44;;;;;;;149.10;143.17;;;18.00;86.90;;;;;;5089546;28;20485;-70
2023/06/29 04:03:11;;;;;;;160.80;153.83;;;18.10;86.70;;;;;;5094893;28;20456;-70
2023/06/29 04:05:38;;;;;;;164.00;157.60;;;18.10;87.50;;;;;;5093972;28;20454;-70
2023/06/29 04:08:05;;;;;;;162.90;156.50;;;18.10;87.20;;;;;;5093939;28;20449;-70
2023/06/29 04:10:32;;;;;;;163.83;157.57;;;18.20;87.40;;;;;;5094476;28;20457;-70
2023/06/29 04:12:59;;;;;;;168.53;161.07;;;18.30;87.50;;;;;;5094594;28;20956;-70
2023/06/29 04:15:26;;;;;;;174.80;167.50;;;18.30;88.00;;;;;;5094143;28;20456;-69
2023/06/29 04:17:54;;;;;;;157.07;150.77;;;18.30;88.00;;;;;;5093837;28;20461;-69
2023/06/29 04:20:21;;;;;;;145.13;139.40;;;18.30;87.30;;;;;;5093503;28;20457;-69
2023/06/29 04:22:48;;;;;;;140.40;134.30;;;18.40;86.90;;;;;;5085704;28;20442;-70
2023/06/29 04:25:15;;;;;;;136.30;130.87;;;18.40;86.60;;;;;;5103478;28;20452;-70
2023/06/29 04:27:43;;;;;;;134.53;129.33;;;18.40;86.50;;;;;;5094505;28;20450;-70
2023/06/29 04:30:11;;;;;;;112.43;108.03;;;18.50;86.30;;;;;;5094082;28;20457;-69
2023/06/29 04:32:38;;;;;;;117.77;112.77;;;18.50;84.70;;;;;;5094197;28;20445;-70
2023/06/29 04:35:09;;;;;;;129.73;124.43;;;18.60;84.80;;;;;;5092704;28;20876;-70
2023/06/29 04:37:40;;;;;;;132.80;127.50;;;18.70;85.80;;;;;;5094014;28;21010;-69
2023/06/29 04:40:09;;;;;;;147.47;141.80;;;18.70;86.40;;;;;;5093590;28;20519;-70
2023/06/29 04:42:45;;;;;;;152.60;146.60;;;18.80;87.70;;;;;;5094078;28;20450;-69
2023/06/29 04:45:17;;;;;;;157.10;150.20;;;18.80;87.90;;;;;;5093222;28;20456;-70
2023/06/29 04:47:45;;;;;;;148.03;142.27;;;18.90;88.20;;;;;;5094220;28;20450;-70
2023/06/29 04:50:13;;;;;;;141.17;135.67;;;19.00;87.60;;;;;;5093703;28;20525;-70
2023/06/29 04:52:40;;;;;;;128.33;123.37;;;19.00;86.60;;;;;;5093645;28;20521;-70
2023/06/29 04:55:09;;;;;;;86.27;81.70;;;19.10;86.00;;;;;;5092102;28;20938;-70
2023/06/29 04:57:36;;;;;;;51.07;48.23;;;19.20;85.30;;;;;;5093538;28;21023;-70
2023/06/29 05:00:07;;;;;;;41.70;39.20;;;19.20;85.30;;;;;;5093810;28;20450;-70
2023/06/29 05:02:34;;;;;;;37.80;35.57;;;19.30;85.20;;;;;;5093874;28;20934;-70
2023/06/29 05:05:01;;;;;;;32.27;29.70;;;19.40;83.10;;;;;;5085075;28;20957;-70
2023/06/29 05:07:29;;;;;;;27.30;25.10;;;19.50;82.00;;;;;;5088411;28;20481;-70
2023/06/29 05:09:56;;;;;;;33.50;31.30;;;19.60;81.90;;;;;;5092952;28;20446;-70
2023/06/29 05:12:23;;;;;;;22.63;20.20;;;19.70;82.30;;;;;;5092462;28;20881;-70
2023/06/29 05:14:50;;;;;;;18.33;16.60;;;19.70;80.90;;;;;;5091563;28;20937;-70
2023/06/29 05:17:17;;;;;;;16.60;15.10;;;19.70;80.50;;;;;;5093288;28;20556;-70
2023/06/29 05:19:44;;;;;;;22.27;18.20;;;19.80;79.70;;;;;;5093179;28;20876;-70
2023/06/29 05:22:12;;;;;;;13.87;11.27;;;19.90;79.30;;;;;;5093224;28;20945;-70
2023/06/29 05:24:40;;;;;;;16.53;9.57;;;20.00;78.20;;;;;;5092500;28;20496;-70
2023/06/29 05:27:08;;;;;;;13.50;9.20;;;20.00;78.10;;;;;;5093036;28;20446;-70
2023/06/29 05:29:35;;;;;;;15.40;9.83;;;20.00;78.10;;;;;;5091437;28;20933;-70
2023/06/29 05:32:02;;;;;;;18.00;11.43;;;20.00;77.50;;;;;;5092648;28;20964;-70
2023/06/29 05:34:29;;;;;;;12.43;11.13;;;20.00;78.30;;;;;;5092809;28;20450;-71
2023/06/29 05:36:55;;;;;;;15.37;10.60;;;20.10;79.10;;;;;;5092767;28;20478;-70
2023/06/29 05:39:22;;;;;;;13.03;8.70;;;20.10;78.30;;;;;;5092849;28;20821;-70
2023/06/29 05:41:50;;;;;;;11.97;8.23;;;20.20;76.20;;;;;;5093072;28;20788;-70
2023/06/29 05:44:17;;;;;;;16.40;8.77;;;20.20;76.20;;;;;;5086509;28;20454;-70
2023/06/29 05:46:44;;;;;;;15.13;8.00;;;20.20;76.50;;;;;;5087673;28;20449;-70
2023/06/29 05:49:11;;;;;;;16.40;7.40;;;20.20;75.50;;;;;;5091505;28;20464;-70
2023/06/29 05:51:38;;;;;;;14.23;7.70;;;20.10;74.30;;;;;;5092012;28;20460;-70
2023/06/29 05:54:05;;;;;;;14.73;7.43;;;20.10;75.10;;;;;;5091802;28;20456;-70
2023/06/29 05:56:32;;;;;;;10.70;7.20;;;20.00;76.30;;;;;;5092128;28;20473;-70
2023/06/29 05:59:00;;;;;;;10.20;6.70;;;20.10;76.20;;;;;;5091611;28;20457;-69
2023/06/29 06:01:27;;;;;;;13.10;7.40;;;20.20;75.90;;;;;;5091938;28;20450;-69
2023/06/29 06:03:54;;;;;;;12.00;8.30;;;20.30;75.40;;;;;;5091967;28;20818;-70
2023/06/29 06:06:21;;;;;;;13.17;7.57;;;20.40;75.80;;;;;;5090896;28;20457;-70
2023/06/29 06:08:48;;;;;;;10.63;6.83;;;20.60;74.80;;;;;;5091567;28;20972;-70
2023/06/29 06:11:15;;;;;;;13.10;7.50;;;20.80;74.80;;;;;;5091531;28;20449;-70
2023/06/29 06:13:41;;;;;;;16.30;8.27;;;21.00;74.30;;;;;;5091011;28;21135;-70
2023/06/29 06:16:09;;;;;;;12.43;7.57;;;21.30;73.50;;;;;;5090602;28;20469;-70
2023/06/29 06:18:36;;;;;;;15.60;8.30;;;21.50;72.10;;;;;;5091680;28;20450;-70
2023/06/29 06:21:03;;;;;;;12.43;7.60;;;21.80;71.70;;;;;;5090625;28;20450;-70
2023/06/29 06:23:30;;;;;;;10.63;6.77;;;22.00;71.80;;;;;;5091766;28;20881;-69
2023/06/29 06:25:57;;;;;;;12.17;6.47;;;21.90;71.30;;;;;;5091519;28;20801;-69
2023/06/29 06:28:25;;;;;;;11.40;6.80;;;22.20;71.40;;;;;;5091815;28;20446;-69
2023/06/29 06:30:52;;;;;;;12.70;6.90;;;22.20;70.50;;;;;;5091519;28;20446;-69
2023/06/29 06:33:20;;;;;;;10.63;6.03;;;22.30;69.50;;;;;;5092046;28;20876;-69
2023/06/29 06:35:47;;;;;;;11.77;5.60;;;22.40;67.20;;;;;;5091345;28;20834;-70
2023/06/29 06:38:13;;;;;;;11.50;6.43;;;22.50;66.30;;;;;;5091333;28;20474;-71
2023/06/29 06:40:40;;;;;;;11.87;5.53;;;22.60;64.20;;;;;;5092960;28;20445;-71
2023/06/29 06:43:07;;;;;;;10.60;5.83;;;22.60;64.20;;;;;;5095401;28;20452;-71
2023/06/29 06:45:34;;;;;;;10.97;5.03;;;22.70;63.80;;;;;;5094800;28;20819;-71
2023/06/29 06:48:01;;;;;;;12.52;6.13;;;22.60;61.10;;;;;;5094676;28;20448;-69
2023/06/29 06:50:29;;;;;;;15.33;5.30;;;22.70;60.90;;;;;;5095229;28;20204;-70
2023/06/29 06:52:56;;;;;;;11.50;5.40;;;22.80;58.90;;;;;;5092674;28;20785;-69
2023/06/29 06:55:23;;;;;;;8.90;4.73;;;22.80;59.00;;;;;;5095332;28;20489;-72
2023/06/29 06:57:50;;;;;;;12.13;6.37;;;22.80;60.10;;;;;;5095309;28;20633;-72
2023/06/29 07:00:18;;;;;;;10.93;5.20;;;22.80;59.80;;;;;;5095058;28;20536;-72
2023/06/29 07:02:45;;;;;;;11.57;6.10;;;22.80;58.90;;;;;;5095198;28;20459;-72
2023/06/29 07:05:12;;;;;;;9.47;5.40;;;23.10;58.70;;;;;;5095009;28;20458;-72
2023/06/29 07:07:40;;;;;;;10.03;5.67;;;23.40;58.70;;;;;;5095436;28;20460;-72
2023/06/29 07:10:07;;;;;;;10.13;5.70;;;23.70;56.70;;;;;;5095200;28;20446;-72
2023/06/29 07:12:34;;;;;;;11.13;5.43;;;23.70;56.70;;;;;;5095165;28;20503;-72
2023/06/29 07:15:01;;;;;;;12.70;5.33;;;23.70;53.80;;;;;;5094539;28;20458;-72
2023/06/29 07:17:28;;;;;;;13.60;5.57;;;23.70;56.70;;;;;;5094990;28;21007;-72
2023/06/29 07:19:55;;;;;;;13.07;7.57;;;23.60;55.70;;;;;;5094391;28;20457;-72
2023/06/29 07:22:22;;;;;;;19.63;7.37;;;23.40;53.70;;;;;;5094851;28;20460;-72
2023/06/29 07:24:50;;;;;;;13.40;6.70;;;23.30;56.30;;;;;;5093803;28;20453;-72
2023/06/29 07:27:17;;;;;;;12.70;6.67;;;23.10;54.40;;;;;;5095536;28;20453;-72
2023/06/29 07:29:46;;;;;;;15.27;5.73;;;22.90;55.90;;;;;;5094241;28;20460;-72
2023/06/29 07:32:13;;;;;;;14.70;6.37;;;22.80;55.80;;;;;;5094818;28;20453;-73
2023/06/29 07:34:39;;;;;;;14.13;6.53;;;22.80;55.80;;;;;;5094472;28;20458;-73
2023/06/29 07:37:06;;;;;;;21.47;7.03;;;22.80;55.90;;;;;;5094313;28;20992;-73
2023/06/29 07:39:34;;;;;;;13.93;6.57;;;22.80;57.20;;;;;;5094453;28;20460;-69
2023/06/29 07:42:02;;;;;;;12.37;6.20;;;22.80;57.30;;;;;;5094840;28;20503;-68
2023/06/29 07:44:29;;;;;;;17.27;6.27;;;22.90;56.80;;;;;;5094646;28;20453;-68
2023/06/29 07:46:56;;;;;;;14.50;6.00;;;22.90;55.90;;;;;;5094474;28;20812;-69
2023/06/29 07:49:23;;;;;;;19.90;7.20;;;23.10;56.20;;;;;;5095349;28;20454;-69
2023/06/29 07:51:50;;;;;;;13.60;7.17;;;23.20;56.20;;;;;;5095193;28;20544;-68
2023/06/29 07:54:18;;;;;;;15.50;6.57;;;23.40;56.40;;;;;;5094613;28;20991;-68
2023/06/29 07:56:45;;;;;;;16.97;7.17;;;23.50;56.50;;;;;;5094864;28;20509;-68
2023/06/29 07:59:13;;;;;;;16.83;7.10;;;23.50;54.90;;;;;;5094573;28;20458;-68
2023/06/29 08:01:39;;;;;;;14.53;6.80;;;23.50;56.30;;;;;;5094879;28;20457;-69
2023/06/29 08:04:07;;;;;;;12.10;6.97;;;23.50;55.30;;;;;;5094912;28;20818;-68
2023/06/29 08:06:41;;;;;;;17.57;7.47;;;23.50;54.30;;;;;;5094922;28;20836;-69
2023/06/29 08:09:08;;;;;;;14.03;6.63;;;23.40;54.60;;;;;;5094833;28;20453;-68
2023/06/29 08:11:35;;;;;;;19.23;8.10;;;23.30;55.90;;;;;;5094680;28;20956;-69
2023/06/29 08:14:02;;;;;;;16.63;7.53;;;23.20;54.20;;;;;;5094776;28;20818;-68
2023/06/29 08:16:30;;;;;;;12.53;6.93;;;23.10;55.70;;;;;;5094621;28;20812;-69
2023/06/29 08:18:57;;;;;;;14.03;6.80;;;23.00;55.40;;;;;;5094634;28;20454;-69
2023/06/29 08:21:24;;;;;;;18.53;7.40;;;23.00;56.00;;;;;;5094413;28;20449;-68
2023/06/29 08:23:51;;;;;;;10.90;6.63;;;23.00;56.00;;;;;;5094278;28;20454;-68
2023/06/29 08:26:19;;;;;;;16.93;7.47;;;23.10;56.10;;;;;;5093928;28;21005;-69
2023/06/29 08:28:46;;;;;;;24.33;10.20;;;23.20;56.20;;;;;;5094677;28;20446;-68
2023/06/29 08:31:12;;;;;;;15.63;8.07;;;23.30;56.30;;;;;;5094286;28;20450;-69
2023/06/29 08:33:41;;;;;;;18.10;8.00;;;23.40;54.60;;;;;;5094593;28;20454;-68
2023/06/29 08:36:08;;;;;;;14.63;6.90;;;23.50;53.80;;;;;;5093925;28;20465;-68
2023/06/29 08:38:34;;;;;;;18.43;7.97;;;23.60;53.00;;;;;;5094213;28;20477;-68
2023/06/29 08:41:04;;;;;;;14.97;8.10;;;23.80;52.80;;;;;;5094240;28;20458;-68
2023/06/29 08:43:31;;;;;;;21.00;9.30;;;24.00;53.20;;;;;;5094175;28;20457;-69
2023/06/29 08:45:58;;;;;;;18.27;8.70;;;24.30;51.60;;;;;;5094082;28;20450;-68
2023/06/29 08:48:26;;;;;;;17.43;8.70;;;24.50;48.60;;;;;;5094031;28;20449;-68
2023/06/29 08:51:00;;;;;;;15.40;9.13;;;24.70;48.80;;;;;;5093805;28;20507;-68
2023/06/29 08:53:28;;;;;;;21.17;8.63;;;25.00;49.00;;;;;;5093774;28;20447;-68
2023/06/29 08:55:55;;;;;;;16.03;8.40;;;25.50;47.50;;;;;;5093733;28;20481;-68
2023/06/29 08:58:22;;;;;;;18.80;9.20;;;25.60;40.40;;;;;;5093752;28;20504;-68
2023/06/29 09:00:50;;;;;;;17.80;9.27;;;26.20;40.80;;;;;;5093542;28;20450;-68
2023/06/29 09:03:17;;;;;;;18.23;9.17;;;26.80;39.80;;;;;;5093132;28;20453;-69
2023/06/29 09:05:45;;;;;;;16.93;9.23;;;26.90;37.10;;;;;;5093131;28;20461;-68
2023/06/29 09:08:14;;;;;;;29.47;11.00;;;27.20;36.20;;;;;;5093765;28;20446;-66
2023/06/29 09:10:42;;;;;;;22.43;10.93;;;27.40;32.40;;;;;;5093540;28;20527;-68
2023/06/29 09:13:09;;;;;;;21.17;11.57;;;27.50;32.50;;;;;;5093510;28;20454;-66
2023/06/29 09:15:38;;;;;;;18.50;10.10;;;27.90;32.70;;;;;;5093412;28;20827;-69
2023/06/29 09:18:05;;;;;;;38.77;12.57;;;28.40;27.00;;;;;;5093245;28;20475;-68
2023/06/29 09:20:35;;;;;;;25.23;11.93;;;28.60;25.60;;;;;;5093130;28;20794;-67
2023/06/29 09:23:03;;;;;;;26.70;12.20;;;28.90;26.60;;;;;;5093519;28;20519;-67
2023/06/29 09:25:34;;;;;;;29.80;13.20;;;29.30;25.60;;;;;;5093014;28;20501;-67
2023/06/29 09:28:05;;;;;;;20.00;11.80;;;29.30;22.20;;;;;;5093351;28;20790;-67
2023/06/29 09:30:37;;;;;;;35.73;13.90;;;29.30;20.80;;;;;;5092948;28;20821;-67
2023/06/29 09:33:08;;;;;;;20.37;12.20;;;29.40;21.30;;;;;;5093297;28;20453;-66
2023/06/29 09:35:36;;;;;;;22.53;11.90;;;29.10;20.80;;;;;;5092578;28;21029;-67
2023/06/29 09:38:03;;;;;;;18.60;13.20;;;29.00;22.30;;;;;;5093132;28;20481;-66
2023/06/29 09:40:32;;;;;;;19.30;12.40;;;29.40;20.60;;;;;;5092798;28;20454;-67
2023/06/29 09:43:03;;;;;;;23.47;13.63;;;29.00;20.30;;;;;;5092849;28;20464;-66
2023/06/29 09:45:31;;;;;;;21.53;13.80;;;28.90;22.70;;;;;;5093001;28;20790;-66
2023/06/29 09:47:59;;;;;;;16.17;11.70;;;28.60;23.50;;;;;;5093209;28;20451;-67
2023/06/29 09:50:25;;;;;;;22.17;12.20;;;28.10;24.90;;;;;;5092616;28;20456;-66
2023/06/29 09:52:54;;;;;;;17.70;11.30;;;28.10;25.00;;;;;;5093153;28;20501;-67
2023/06/29 09:55:29;;;;;;;19.30;12.20;;;28.00;24.90;;;;;;5092659;28;20542;-67
2023/06/29 09:57:59;;;;;;;19.53;12.00;;;27.80;24.80;;;;;;5092392;28;20481;-69
2023/06/29 10:00:27;;;;;;;21.87;11.70;;;27.70;26.90;;;;;;5092521;28;20461;-69
2023/06/29 10:02:54;;;;;;;19.00;12.63;;;27.50;25.90;;;;;;5092701;28;20449;-69
2023/06/29 10:05:21;;;;;;;24.83;12.30;;;27.80;26.20;;;;;;5092493;28;20540;-67
2023/06/29 10:07:50;;;;;;;16.87;12.03;;;27.70;24.80;;;;;;5092489;28;20937;-67
2023/06/29 10:10:18;;;;;;;16.50;10.87;;;27.90;24.90;;;;;;5092312;28;20489;-69
2023/06/29 10:12:54;;;;;;;20.93;12.43;;;28.00;24.90;;;;;;5090968;28;20877;-69
2023/06/29 10:15:25;;;;;;;21.70;12.20;;;27.80;24.80;;;;;;5090190;28;20457;-68
2023/06/29 10:18:00;;;;;;;22.10;11.60;;;28.10;25.00;;;;;;5091049;28;20512;-67
2023/06/29 10:20:29;;;;;;;17.40;10.87;;;28.30;23.90;;;;;;5091014;28;20468;-67
2023/06/29 10:22:59;;;;;;;15.60;10.17;;;28.30;21.30;;;;;;5091672;28;20461;-69
2023/06/29 10:25:29;;;;;;;17.20;10.40;;;28.40;19.20;;;;;;5092453;28;20467;-69
2023/06/29 10:27:56;;;;;;;19.50;10.90;;;28.30;17.60;;;;;;5092161;28;20443;-69
2023/06/29 10:30:26;;;;;;;18.27;11.07;;;28.00;18.70;;;;;;5092210;28;20461;-70
2023/06/29 10:32:53;;;;;;;20.23;12.27;;;27.70;19.40;;;;;;5092298;28;20978;-69
2023/06/29 10:35:24;;;;;;;18.43;11.57;;;27.70;21.10;;;;;;5091684;28;20508;-69
2023/06/29 10:37:56;;;;;;;16.40;10.10;;;28.00;24.80;;;;;;5092208;28;20525;-68
2023/06/29 10:40:25;;;;;;;20.83;11.00;;;27.80;22.40;;;;;;5092234;28;20459;-69
2023/06/29 10:42:54;;;;;;;16.23;10.50;;;28.10;22.10;;;;;;5092236;28;20455;-69
2023/06/29 10:45:32;;;;;;;14.97;10.33;;;27.90;21.10;;;;;;5091987;28;20458;-69
2023/06/29 10:48:17;;;;;;;17.90;9.60;;;27.60;19.60;;;;;;5092108;28;20460;-69
2023/06/29 10:50:45;;;;;;;21.90;10.70;;;27.30;22.00;;;;;;5092196;28;20785;-69
2023/06/29 10:53:14;;;;;;;18.60;10.97;;;26.80;24.30;;;;;;5092266;28;20536;-69
2023/06/29 10:56:00;;;;;;;22.07;11.73;;;26.90;24.40;;;;;;5091627;28;20537;-69
2023/06/29 10:58:32;;;;;;;18.67;10.60;;;26.80;24.30;;;;;;5092180;28;20486;-69
2023/06/29 11:01:01;;;;;;;21.43;10.40;;;26.90;24.30;;;;;;5091961;28;20942;-68
2023/06/29 11:03:27;;;;;;;21.43;11.30;;;26.90;24.30;;;;;;5091858;28;20968;-69
2023/06/29 11:05:56;;;;;;;18.37;12.33;;;26.80;24.20;;;;;;5091676;28;20450;-69
2023/06/29 11:08:24;;;;;;;16.17;10.83;;;26.50;24.10;;;;;;5091861;28;20949;-69
2023/06/29 11:10:51;;;;;;;17.93;11.30;;;26.40;26.50;;;;;;5091630;28;20457;-69
2023/06/29 11:13:19;;;;;;;18.00;10.70;;;26.20;25.30;;;;;;5092052;28;20454;-69
2023/06/29 11:15:53;;;;;;;17.67;10.93;;;25.90;25.20;;;;;;5091464;28;20905;-69
2023/06/29 11:18:22;;;;;;;18.80;10.97;;;25.80;27.30;;;;;;5091876;28;20894;-69
2023/06/29 11:20:49;;;;;;;21.40;13.18;;;25.90;28.20;;;;;;5090769;28;20865;-69
2023/06/29 11:23:16;;;;;;;17.70;12.63;;;26.00;27.70;;;;;;5091821;28;20199;-69
2023/06/29 11:25:43;;;;;;;19.93;11.70;;;26.30;28.40;;;;;;5091589;28;20449;-69
2023/06/29 11:28:10;;;;;;;17.30;10.23;;;26.60;26.10;;;;;;5095312;28;20450;-70
2023/06/29 11:30:40;;;;;;;21.30;11.53;;;27.10;24.40;;;;;;5095902;28;20536;-70
2023/06/29 11:33:06;;;;;;;18.03;10.93;;;27.50;24.60;;;;;;5095856;28;20450;-69
2023/06/29 11:35:35;;;;;;;18.17;11.67;;;28.10;21.70;;;;;;5095186;28;20458;-70
2023/06/29 11:38:01;;;;;;;20.50;13.27;;;28.40;19.30;;;;;;5095913;28;20478;-70
2023/06/29 11:40:29;;;;;;;18.30;11.97;;;28.60;17.80;;;;;;5095921;28;20452;-71
2023/06/29 11:42:56;;;;;;;20.90;11.83;;;28.00;20.50;;;;;;5095836;28;20453;-71
2023/06/29 11:45:24;;;;;;;20.33;11.87;;;27.90;21.00;;;;;;5095881;28;20475;-72
2023/06/29 11:47:57;;;;;;;17.83;13.30;;;27.70;21.20;;;;;;5095807;28;20453;-71
2023/06/29 11:50:24;;;;;;;22.83;12.70;;;27.80;20.10;;;;;;5095616;28;20450;-71
2023/06/29 11:52:53;;;;;;;19.47;12.57;;;27.70;20.30;;;;;;5095406;28;20452;-71
2023/06/29 11:55:20;;;;;;;25.10;12.60;;;27.70;18.10;;;;;;5095607;28;20453;-70
2023/06/29 11:57:53;;;;;;;19.43;12.87;;;27.70;20.30;;;;;;5095591;28;20459;-71
2023/06/29 12:00:31;;;;;;;20.47;11.50;;;27.50;22.10;;;;;;5095333;28;20788;-72
2023/06/29 12:03:06;;;;;;;17.43;12.60;;;27.30;23.20;;;;;;5095220;28;20929;-72
2023/06/29 12:05:32;;;;;;;18.27;13.00;;;27.30;23.70;;;;;;5094869;28;20806;-72
2023/06/29 12:08:06;;;;;;;21.07;13.20;;;27.10;22.90;;;;;;5095242;28;20921;-71
2023/06/29 12:10:36;;;;;;;22.77;12.03;;;27.10;24.40;;;;;;5094753;28;20949;-72
2023/06/29 12:13:04;;;;;;;21.20;11.87;;;27.10;22.10;;;;;;5095036;28;20523;-72
2023/06/29 12:15:32;;;;;;;19.50;13.77;;;26.90;27.50;;;;;;5094666;28;20461;-72
2023/06/29 12:18:12;;;;;;;19.73;12.97;;;26.90;24.30;;;;;;5095011;28;20460;-72
2023/06/29 12:20:40;;;;;;;18.47;11.77;;;26.90;24.30;;;;;;5094760;28;20803;-72
2023/06/29 12:23:09;;;;;;;21.93;13.77;;;27.00;24.40;;;;;;5094987;28;20551;-72
2023/06/29 12:25:44;;;;;;;22.20;13.10;;;26.90;24.30;;;;;;5094387;28;20461;-72
2023/06/29 12:28:10;;;;;;;22.90;13.07;;;27.00;24.40;;;;;;5094955;28;21089;-72
2023/06/29 12:30:37;;;;;;;19.67;13.60;;;27.10;21.60;;;;;;5094846;28;20481;-72